createdAt,value
2023-03-04T00:00:18.877Z,29.944
2023-03-04T00:05:18.920Z,29.944
2023-03-04T00:10:18.943Z,29.944
2023-03-04T00:15:15.938Z,29.952
2023-03-04T00:20:15.853Z,29.952
2023-03-04T00:25:18.971Z,29.952
2023-03-04T00:30:19.299Z,29.954
2023-03-04T00:35:19.201Z,29.954
2023-03-04T00:40:18.980Z,29.954
2023-03-04T00:45:19.067Z,29.958
2023-03-04T00:50:19.082Z,29.958
2023-03-04T00:55:19.076Z,29.958
2023-03-04T01:00:19.169Z,29.953
2023-03-04T01:05:19.163Z,29.953
2023-03-04T01:10:16.004Z,29.953
2023-03-04T01:15:16.085Z,29.949
2023-03-04T01:20:19.136Z,29.949
2023-03-04T01:25:19.134Z,29.949
2023-03-04T01:30:19.146Z,29.948
2023-03-04T01:35:19.151Z,29.948
2023-03-04T01:40:19.176Z,29.948
2023-03-04T01:45:19.246Z,29.949
2023-03-04T01:50:19.214Z,29.949
2023-03-04T01:55:19.204Z,29.949
2023-03-04T02:00:19.170Z,29.934
2023-03-04T02:05:16.117Z,29.934
2023-03-04T02:10:19.243Z,29.934
2023-03-04T02:15:19.210Z,29.925
2023-03-04T02:20:19.186Z,29.925
2023-03-04T02:25:19.266Z,29.925
2023-03-04T02:30:19.266Z,29.902
2023-03-04T02:35:19.469Z,29.902
2023-03-04T02:40:19.297Z,29.902
2023-03-04T02:45:19.348Z,29.900
2023-03-04T02:50:19.336Z,29.900
2023-03-04T02:55:16.258Z,29.900
2023-03-04T03:00:16.292Z,29.897
2023-03-04T03:05:19.401Z,29.897
2023-03-04T03:10:19.417Z,29.897
2023-03-04T03:15:19.395Z,29.888
2023-03-04T03:20:19.449Z,29.888
2023-03-04T03:25:19.481Z,29.888
2023-03-04T03:30:19.398Z,29.879
2023-03-04T03:35:19.480Z,29.879
2023-03-04T03:40:19.603Z,29.879
2023-03-04T03:45:19.448Z,29.879
2023-03-04T03:50:16.300Z,29.879
2023-03-04T03:55:16.358Z,29.879
2023-03-04T04:00:19.478Z,29.873
2023-03-04T04:05:19.487Z,29.873
2023-03-04T04:10:19.584Z,29.873
2023-03-04T04:15:19.569Z,29.874
2023-03-04T04:20:19.454Z,29.874
2023-03-04T04:25:19.506Z,29.874
2023-03-04T04:30:19.583Z,29.877
2023-03-04T04:35:19.658Z,29.877
2023-03-04T04:40:19.574Z,29.877
2023-03-04T04:45:16.380Z,29.876
2023-03-04T04:50:19.616Z,29.876
2023-03-04T04:55:19.582Z,29.876
2023-03-04T05:00:15.717Z,29.874
2023-03-04T05:05:15.956Z,29.874
2023-03-04T05:10:18.920Z,29.874
2023-03-04T05:15:18.917Z,29.868
2023-03-04T05:20:18.920Z,29.868
2023-03-04T05:25:18.954Z,29.868
2023-03-04T05:30:18.946Z,29.861
2023-03-04T05:35:19.116Z,29.861
2023-03-04T05:40:18.950Z,29.861
2023-03-04T05:45:18.986Z,29.837
2023-03-04T05:50:15.866Z,29.837
2023-03-04T05:55:15.767Z,29.837
2023-03-04T06:00:18.954Z,29.828
2023-03-04T06:05:19.040Z,29.828
2023-03-04T06:10:19.056Z,29.828
2023-03-04T06:15:18.927Z,29.820
2023-03-04T06:20:18.953Z,29.820
2023-03-04T06:25:18.991Z,29.820
2023-03-04T06:30:19.060Z,29.788
2023-03-04T06:35:19.317Z,29.788
2023-03-04T06:40:19.065Z,29.788
2023-03-04T06:45:16.013Z,29.779
2023-03-04T06:50:15.937Z,29.779
2023-03-04T06:55:19.065Z,29.779
2023-03-04T07:00:19.169Z,29.777
2023-03-04T07:05:19.075Z,29.777
2023-03-04T07:10:19.326Z,29.777
2023-03-04T07:15:19.040Z,29.767
2023-03-04T07:20:19.119Z,29.767
2023-03-04T07:25:19.142Z,29.767
2023-03-04T07:30:19.126Z,29.749
2023-03-04T07:35:16.048Z,29.749
2023-03-04T07:40:16.130Z,29.749
2023-03-04T07:45:19.300Z,29.725
2023-03-04T07:50:19.417Z,29.725
2023-03-04T07:55:19.259Z,29.725
2023-03-04T08:00:19.255Z,29.702
2023-03-04T08:05:19.214Z,29.702
2023-03-04T08:10:19.209Z,29.702
2023-03-04T08:15:19.213Z,29.672
2023-03-04T08:20:19.260Z,29.672
2023-03-04T08:25:19.231Z,29.672
2023-03-04T08:30:16.186Z,29.635
2023-03-04T08:35:16.208Z,29.635
2023-03-04T08:40:19.316Z,29.635
2023-03-04T08:45:19.338Z,29.612
2023-03-04T08:50:22.244Z,29.612
2023-03-04T08:55:19.392Z,29.612
2023-03-04T09:00:19.351Z,29.603
2023-03-04T09:05:19.412Z,29.603
2023-03-04T09:10:19.281Z,29.603
2023-03-04T09:15:19.427Z,29.594
2023-03-04T09:20:19.396Z,29.594
2023-03-04T09:25:16.296Z,29.594
2023-03-04T09:30:16.562Z,29.606
2023-03-04T09:35:19.540Z,29.606
2023-03-04T09:40:19.453Z,29.606
2023-03-04T09:45:19.596Z,29.610
2023-03-04T09:50:19.557Z,29.610
2023-03-04T09:55:19.486Z,29.610
2023-03-04T10:00:19.630Z,29.601
2023-03-04T10:05:19.460Z,29.601
2023-03-04T10:10:19.543Z,29.601
2023-03-04T10:15:19.557Z,29.590
2023-03-04T10:20:16.437Z,29.590
2023-03-04T10:25:16.655Z,29.590
2023-03-04T10:30:19.596Z,29.578
2023-03-04T10:35:20.538Z,29.578
2023-03-04T10:40:19.571Z,29.578
2023-03-04T10:45:19.555Z,29.549
2023-03-04T10:50:19.580Z,29.549
2023-03-04T10:55:19.617Z,29.549
2023-03-04T11:00:19.513Z,29.532
2023-03-04T11:05:19.603Z,29.532
2023-03-04T11:10:16.664Z,29.532
2023-03-04T11:15:16.562Z,29.512
2023-03-04T11:20:19.790Z,29.512
2023-03-04T11:25:19.633Z,29.512
2023-03-04T11:30:19.687Z,29.493
2023-03-04T11:35:19.739Z,29.493
2023-03-04T11:40:20.850Z,29.493
2023-03-04T11:45:28.722Z,29.487
2023-03-04T11:50:19.809Z,29.487
2023-03-04T11:55:20.088Z,29.487
2023-03-04T12:00:19.787Z,29.480
2023-03-04T12:05:17.332Z,29.480
2023-03-04T12:10:17.104Z,29.480
2023-03-04T12:15:19.996Z,29.473
2023-03-04T12:20:19.809Z,29.473
2023-03-04T12:25:20.325Z,29.473
2023-03-04T12:30:20.383Z,29.470
2023-03-04T12:35:20.080Z,29.470
2023-03-04T12:40:19.825Z,29.470
2023-03-04T12:45:19.924Z,29.456
2023-03-04T12:50:19.984Z,29.456
2023-03-04T12:55:19.803Z,29.456
2023-03-04T13:00:16.837Z,29.454
2023-03-04T13:05:20.016Z,29.454
2023-03-04T13:10:20.003Z,29.454
2023-03-04T13:15:19.941Z,29.454
2023-03-04T13:20:19.962Z,29.454
2023-03-04T13:25:19.909Z,29.454
2023-03-04T13:30:19.969Z,29.450
2023-03-04T13:35:19.898Z,29.450
2023-03-04T13:40:20.561Z,29.450
2023-03-04T13:45:22.395Z,29.443
2023-03-04T13:50:16.905Z,29.443
2023-03-04T13:55:16.915Z,29.443
2023-03-04T14:00:20.047Z,29.441
2023-03-04T14:05:19.983Z,29.441
2023-03-04T14:10:20.014Z,29.441
2023-03-04T14:15:20.024Z,29.446
2023-03-04T14:20:20.081Z,29.446
2023-03-04T14:25:20.013Z,29.446
2023-03-04T14:30:26.116Z,29.446
2023-03-04T14:35:20.264Z,29.446
2023-03-04T14:40:20.079Z,29.446
2023-03-04T14:45:17.379Z,29.453
2023-03-04T14:50:16.993Z,29.453
2023-03-04T14:55:20.185Z,29.453
2023-03-04T15:00:20.183Z,29.456
2023-03-04T15:05:25.922Z,29.456
2023-03-04T15:10:20.169Z,29.456
2023-03-04T15:15:20.176Z,29.459
2023-03-04T15:20:20.176Z,29.459
2023-03-04T15:25:20.601Z,29.459
2023-03-04T15:30:20.268Z,29.462
2023-03-04T15:35:20.270Z,29.462
2023-03-04T15:40:17.114Z,29.462
2023-03-04T15:45:20.275Z,29.469
2023-03-04T15:50:20.239Z,29.469
2023-03-04T15:55:20.477Z,29.469
2023-03-04T16:00:20.336Z,29.476
2023-03-04T16:05:20.269Z,29.476
2023-03-04T16:10:20.360Z,29.476
2023-03-04T16:15:20.423Z,29.473
2023-03-04T16:20:20.337Z,29.473
2023-03-04T16:25:20.373Z,29.473
2023-03-04T16:30:17.236Z,29.478
2023-03-04T16:35:17.271Z,29.478
2023-03-04T16:40:20.354Z,29.478
2023-03-04T16:45:20.412Z,29.486
2023-03-04T16:50:20.393Z,29.486
2023-03-04T16:55:20.283Z,29.486
2023-03-04T17:00:20.428Z,29.487
2023-03-04T17:05:20.518Z,29.487
2023-03-04T17:10:20.418Z,29.487
2023-03-04T17:15:20.472Z,29.495
2023-03-04T17:20:20.486Z,29.495
2023-03-04T17:25:17.426Z,29.495
2023-03-04T17:30:17.414Z,29.500
2023-03-04T17:35:20.499Z,29.500
2023-03-04T17:40:20.538Z,29.500
2023-03-04T17:45:20.531Z,29.504
2023-03-04T17:50:20.527Z,29.504
2023-03-04T17:55:20.576Z,29.504
2023-03-04T18:00:20.687Z,29.517
2023-03-04T18:05:20.559Z,29.517
2023-03-04T18:10:20.535Z,29.517
2023-03-04T18:15:18.684Z,29.528
2023-03-04T18:20:18.570Z,29.528
2023-03-04T18:25:18.609Z,29.528
2023-03-04T18:30:18.695Z,29.533
2023-03-04T18:35:18.689Z,29.533
2023-03-04T18:40:18.604Z,29.533
2023-03-04T18:45:18.539Z,29.549
2023-03-04T18:50:18.637Z,29.549
2023-03-04T18:55:15.615Z,29.549
2023-03-04T19:00:15.592Z,29.563
2023-03-04T19:05:18.755Z,29.563
2023-03-04T19:10:18.762Z,29.563
2023-03-04T19:15:18.722Z,29.577
2023-03-04T19:20:18.846Z,29.577
2023-03-04T19:25:18.761Z,29.577
2023-03-04T19:30:18.824Z,29.593
2023-03-04T19:35:18.841Z,29.593
2023-03-04T19:40:18.916Z,29.593
2023-03-04T19:45:18.886Z,29.608
2023-03-04T19:50:15.699Z,29.608
2023-03-04T19:55:15.816Z,29.608
2023-03-04T20:00:18.931Z,29.622
2023-03-04T20:05:18.852Z,29.622
2023-03-04T20:10:18.891Z,29.622
2023-03-04T20:15:19.005Z,29.628
2023-03-04T20:20:18.878Z,29.628
2023-03-04T20:25:18.825Z,29.628
2023-03-04T20:30:18.838Z,29.646
2023-03-04T20:35:18.949Z,29.646
2023-03-04T20:40:18.921Z,29.646
2023-03-04T20:45:15.815Z,29.656
2023-03-04T20:50:16.059Z,29.656
2023-03-04T20:55:19.008Z,29.656
2023-03-04T21:00:18.973Z,29.667
2023-03-04T21:05:19.035Z,29.667
2023-03-04T21:10:18.945Z,29.667
2023-03-04T21:15:18.944Z,29.682
2023-03-04T21:20:19.009Z,29.682
2023-03-04T21:25:19.009Z,29.682
2023-03-04T21:30:19.031Z,29.688
2023-03-04T21:35:15.972Z,29.688
2023-03-04T21:40:15.919Z,29.688
2023-03-04T21:45:19.067Z,29.703
2023-03-04T21:50:19.167Z,29.703
2023-03-04T21:55:19.120Z,29.703
2023-03-04T22:00:19.065Z,29.718
2023-03-04T22:05:19.243Z,29.718
2023-03-04T22:10:19.046Z,29.718
2023-03-04T22:15:19.121Z,29.722
2023-03-04T22:20:19.264Z,29.722
2023-03-04T22:25:19.128Z,29.722
2023-03-04T22:30:16.146Z,29.742
2023-03-04T22:35:16.153Z,29.742
2023-03-04T22:40:19.383Z,29.742
2023-03-04T22:45:19.297Z,29.753
2023-03-04T22:50:19.182Z,29.753
2023-03-04T22:55:19.260Z,29.753
2023-03-04T23:00:19.405Z,29.769
2023-03-04T23:05:19.279Z,29.769
2023-03-04T23:10:19.225Z,29.769
2023-03-04T23:15:19.256Z,29.779
2023-03-04T23:20:19.273Z,29.779
2023-03-04T23:25:16.230Z,29.779
2023-03-04T23:30:19.374Z,29.789
2023-03-04T23:35:19.443Z,29.789
2023-03-04T23:40:19.325Z,29.789
2023-03-04T23:45:19.331Z,29.805
2023-03-04T23:50:19.346Z,29.805
2023-03-04T23:55:19.374Z,29.805
